createdAt,value
2023-04-16T00:01:14.015Z,1.30
2023-04-16T00:03:42.915Z,2.33
2023-04-16T00:06:17.261Z,1.48
2023-04-16T00:08:45.969Z,1.40
2023-04-16T00:11:14.673Z,1.30
2023-04-16T00:13:43.312Z,1.20
2023-04-16T00:16:11.372Z,1.20
2023-04-16T00:18:40.476Z,1.20
2023-04-16T00:21:09.705Z,1.20
2023-04-16T00:23:37.716Z,1.40
2023-04-16T00:26:05.994Z,1.30
2023-04-16T00:28:33.938Z,1.30
2023-04-16T00:31:02.644Z,1.30
2023-04-16T00:33:30.948Z,1.48
2023-04-16T00:35:59.599Z,1.35
2023-04-16T00:38:31.010Z,1.20
2023-04-16T00:41:02.072Z,1.30
2023-04-16T00:43:31.456Z,1.20
2023-04-16T00:45:59.908Z,1.33
2023-04-16T00:48:28.846Z,3.85
2023-04-16T00:50:56.970Z,3.92
2023-04-16T00:53:25.811Z,5.38
2023-04-16T00:55:54.627Z,6.55
2023-04-16T00:58:23.459Z,2.30
2023-04-16T01:00:52.949Z,1.63
2023-04-16T01:03:21.880Z,1.60
2023-04-16T01:05:53.742Z,1.50
2023-04-16T01:08:23.313Z,1.80
2023-04-16T01:10:52.306Z,3.05
2023-04-16T01:13:20.878Z,3.92
2023-04-16T01:15:49.496Z,2.25
2023-04-16T01:18:19.381Z,1.77
2023-04-16T01:20:48.952Z,1.95
2023-04-16T01:23:19.935Z,1.40
2023-04-16T01:25:49.026Z,1.35
2023-04-16T01:28:17.729Z,1.42
2023-04-16T01:30:46.374Z,1.25
2023-04-16T01:33:15.727Z,1.48
2023-04-16T01:35:44.319Z,1.60
2023-04-16T01:38:13.021Z,1.70
2023-04-16T01:40:41.737Z,2.08
2023-04-16T01:43:10.250Z,1.48
2023-04-16T01:45:38.851Z,1.50
2023-04-16T01:48:07.780Z,1.73
2023-04-16T01:50:36.085Z,1.40
2023-04-16T01:53:06.404Z,1.30
2023-04-16T01:55:38.060Z,1.20
2023-04-16T01:58:08.836Z,1.50
2023-04-16T02:00:37.603Z,1.30
2023-04-16T02:03:06.423Z,1.10
2023-04-16T02:05:35.210Z,1.40
2023-04-16T02:08:03.793Z,1.50
2023-04-16T02:10:32.709Z,1.52
2023-04-16T02:13:01.581Z,1.80
2023-04-16T02:15:30.142Z,1.50
2023-04-16T02:17:58.774Z,1.40
2023-04-16T02:20:27.703Z,1.73
2023-04-16T02:22:56.311Z,1.80
2023-04-16T02:25:25.584Z,1.80
2023-04-16T02:27:54.212Z,1.70
2023-04-16T02:30:22.936Z,1.73
2023-04-16T02:32:51.633Z,1.80
2023-04-16T02:35:20.243Z,1.70
2023-04-16T02:37:48.795Z,1.55
2023-04-16T02:40:17.539Z,1.65
2023-04-16T02:42:46.158Z,1.88
2023-04-16T02:45:15.053Z,1.65
2023-04-16T02:47:43.743Z,2.45
2023-04-16T02:50:12.826Z,2.10
2023-04-16T02:52:41.499Z,2.42
2023-04-16T02:55:10.885Z,1.90
2023-04-16T02:57:39.579Z,1.73
2023-04-16T03:00:08.936Z,1.83
2023-04-16T03:02:37.563Z,1.50
2023-04-16T03:05:06.587Z,1.67
2023-04-16T03:07:35.171Z,1.88
2023-04-16T03:10:04.812Z,1.75
2023-04-16T03:12:33.382Z,1.77
2023-04-16T03:15:02.117Z,1.90
2023-04-16T03:17:30.498Z,1.92
2023-04-16T03:19:59.114Z,1.90
2023-04-16T03:22:28.322Z,2.17
2023-04-16T03:24:57.279Z,2.13
2023-04-16T03:27:25.877Z,2.00
2023-04-16T03:29:54.479Z,2.10
2023-04-16T03:32:23.159Z,2.00
2023-04-16T03:34:51.802Z,2.17
2023-04-16T03:37:20.496Z,2.20
2023-04-16T03:39:49.107Z,2.53
2023-04-16T03:42:18.113Z,2.17
2023-04-16T03:44:46.702Z,2.22
2023-04-16T03:47:14.716Z,2.38
2023-04-16T03:49:43.283Z,2.40
2023-04-16T03:52:12.557Z,2.35
2023-04-16T03:54:41.106Z,2.30
2023-04-16T03:57:09.683Z,2.35
2023-04-16T03:59:38.283Z,2.45
2023-04-16T04:02:06.991Z,2.10
2023-04-16T04:04:36.189Z,2.20
2023-04-16T04:07:04.865Z,2.10
2023-04-16T04:09:33.617Z,1.77
2023-04-16T04:12:02.511Z,2.50
2023-04-16T04:14:30.539Z,2.78
2023-04-16T04:16:59.118Z,3.28
2023-04-16T04:19:27.732Z,4.05
2023-04-16T04:21:56.262Z,3.72
2023-04-16T04:24:24.920Z,3.60
2023-04-16T04:26:53.830Z,3.55
2023-04-16T04:29:22.502Z,2.97
2023-04-16T04:31:51.198Z,2.95
2023-04-16T04:34:20.214Z,3.63
2023-04-16T04:36:48.804Z,2.90
2023-04-16T04:39:17.700Z,3.55
2023-04-16T04:41:46.294Z,3.72
2023-04-16T04:44:14.884Z,4.07
2023-04-16T04:46:43.529Z,3.63
2023-04-16T04:49:12.297Z,3.33
2023-04-16T04:51:40.940Z,3.20
2023-04-16T04:54:09.724Z,4.15
2023-04-16T04:56:38.345Z,3.47
2023-04-16T04:59:07.028Z,3.08
2023-04-16T05:01:35.755Z,3.70
2023-04-16T05:04:04.359Z,3.30
2023-04-16T05:06:33.002Z,3.17
2023-04-16T05:09:01.822Z,3.25
2023-04-16T05:11:31.145Z,3.40
2023-04-16T05:13:59.992Z,3.50
2023-04-16T05:16:28.618Z,4.13
2023-04-16T05:18:57.426Z,3.55
2023-04-16T05:21:27.763Z,3.83
2023-04-16T05:23:56.377Z,4.43
2023-04-16T05:26:24.917Z,4.20
2023-04-16T05:28:53.431Z,4.90
2023-04-16T05:31:22.363Z,5.60
2023-04-16T05:33:50.983Z,5.70
2023-04-16T05:36:19.551Z,4.53
2023-04-16T05:38:48.154Z,5.50
2023-04-16T05:41:16.918Z,5.15
2023-04-16T05:43:45.473Z,5.75
2023-04-16T05:46:14.199Z,6.53
2023-04-16T05:48:42.846Z,7.03
2023-04-16T05:51:11.488Z,8.13
2023-04-16T05:53:40.112Z,6.53
2023-04-16T05:56:09.273Z,5.57
2023-04-16T05:58:37.866Z,4.32
2023-04-16T06:01:06.608Z,2.92
2023-04-16T06:03:35.265Z,2.70
2023-04-16T06:06:03.937Z,2.55
2023-04-16T06:08:32.527Z,2.30
2023-04-16T06:11:01.343Z,1.95
2023-04-16T06:13:30.422Z,1.88
2023-04-16T06:15:59.097Z,2.40
2023-04-16T06:18:27.769Z,1.60
2023-04-16T06:20:56.553Z,1.80
2023-04-16T06:23:25.245Z,1.67
2023-04-16T06:25:53.835Z,1.60
2023-04-16T06:28:22.367Z,1.98
2023-04-16T06:30:51.046Z,2.28
2023-04-16T06:33:19.612Z,3.00
2023-04-16T06:35:47.603Z,3.20
2023-04-16T06:38:16.895Z,2.92
2023-04-16T06:40:45.487Z,3.10
2023-04-16T06:43:14.201Z,3.47
2023-04-16T06:45:42.928Z,3.05
2023-04-16T06:48:11.535Z,4.43
2023-04-16T06:50:40.376Z,8.43
2023-04-16T06:53:08.942Z,11.27
2023-04-16T06:55:37.531Z,7.68
2023-04-16T06:58:06.099Z,7.75
2023-04-16T07:00:34.799Z,7.10
2023-04-16T07:03:03.587Z,6.60
2023-04-16T07:05:32.978Z,6.07
2023-04-16T07:08:01.043Z,4.28
2023-04-16T07:10:30.046Z,2.92
2023-04-16T07:12:58.877Z,1.90
2023-04-16T07:15:27.444Z,2.08
2023-04-16T07:17:56.187Z,1.90
2023-04-16T07:20:24.907Z,1.55
2023-04-16T07:22:53.669Z,1.50
2023-04-16T07:25:22.437Z,1.40
2023-04-16T07:27:50.988Z,1.27
2023-04-16T07:30:19.611Z,1.23
2023-04-16T07:32:48.397Z,1.20
2023-04-16T07:35:17.105Z,1.05
2023-04-16T07:37:45.714Z,1.35
2023-04-16T07:40:14.523Z,1.10
2023-04-16T07:42:43.072Z,1.10
2023-04-16T07:45:12.016Z,1.20
2023-04-16T07:47:40.660Z,1.20
2023-04-16T07:50:10.129Z,1.30
2023-04-16T07:52:40.184Z,1.73
2023-04-16T07:55:10.392Z,1.20
2023-04-16T07:57:39.238Z,1.08
2023-04-16T08:00:08.819Z,1.30
2023-04-16T08:02:37.637Z,1.30
2023-04-16T08:05:07.032Z,1.23
2023-04-16T08:07:35.763Z,1.10
2023-04-16T08:10:04.403Z,1.17
2023-04-16T08:12:33.171Z,1.17
2023-04-16T08:15:01.844Z,1.15
2023-04-16T08:17:31.432Z,1.10
2023-04-16T08:20:00.018Z,1.15
2023-04-16T08:22:28.661Z,1.30
2023-04-16T08:24:57.287Z,1.10
2023-04-16T08:27:25.810Z,1.10
2023-04-16T08:29:54.401Z,1.08
2023-04-16T08:32:23.120Z,1.08
2023-04-16T08:34:51.783Z,1.75
2023-04-16T08:37:20.313Z,1.17
2023-04-16T08:39:48.885Z,1.10
2023-04-16T08:42:38.858Z,0.90
2023-04-16T08:45:20.496Z,1.10
2023-04-16T08:47:53.287Z,1.00
2023-04-16T08:50:29.551Z,1.20
2023-04-16T08:53:02.737Z,1.27
2023-04-16T08:55:50.217Z,1.38
2023-04-16T08:58:23.937Z,1.17
2023-04-16T09:00:52.757Z,1.40
2023-04-16T09:03:22.875Z,1.10
2023-04-16T09:05:51.785Z,1.00
2023-04-16T09:08:20.350Z,1.00
2023-04-16T09:10:49.532Z,1.25
2023-04-16T09:13:21.676Z,0.90
2023-04-16T09:15:54.875Z,1.10
2023-04-16T09:18:23.704Z,1.17
2023-04-16T09:20:53.371Z,1.17
2023-04-16T09:23:21.906Z,0.90
2023-04-16T09:25:50.587Z,1.00
2023-04-16T09:28:41.289Z,1.10
2023-04-16T09:31:13.725Z,1.02
2023-04-16T09:33:42.750Z,1.10
2023-04-16T09:36:12.114Z,1.10
2023-04-16T09:38:54.478Z,1.45
2023-04-16T09:41:29.594Z,1.15
2023-04-16T09:43:59.058Z,1.30
2023-04-16T09:46:36.744Z,1.30
2023-04-16T09:49:12.143Z,1.35
2023-04-16T09:51:43.474Z,1.02
2023-04-16T09:54:12.022Z,1.00
2023-04-16T09:56:45.731Z,1.30
2023-04-16T09:59:24.802Z,1.13
2023-04-16T10:01:59.748Z,1.15
2023-04-16T10:04:54.280Z,1.10
2023-04-16T10:07:23.161Z,1.15
2023-04-16T10:09:54.168Z,1.00
2023-04-16T10:12:22.810Z,1.20
2023-04-16T10:14:51.380Z,1.05
2023-04-16T10:17:20.292Z,1.10
2023-04-16T10:19:48.902Z,1.13
2023-04-16T10:22:17.698Z,1.33
2023-04-16T10:24:47.502Z,1.00
2023-04-16T10:27:16.082Z,1.10
2023-04-16T10:29:45.434Z,1.10
2023-04-16T10:32:14.285Z,1.20
2023-04-16T10:34:43.066Z,1.20
2023-04-16T10:37:11.736Z,1.50
2023-04-16T10:39:40.362Z,1.30
2023-04-16T10:42:10.699Z,1.30
2023-04-16T10:44:43.454Z,1.10
2023-04-16T10:47:14.646Z,1.35
2023-04-16T10:49:44.855Z,1.10
2023-04-16T10:52:15.192Z,1.15
2023-04-16T10:54:43.979Z,1.30
2023-04-16T10:57:18.916Z,1.30
2023-04-16T10:59:48.052Z,1.80
2023-04-16T11:02:19.576Z,1.13
2023-04-16T11:04:52.529Z,1.40
2023-04-16T11:07:34.794Z,1.35
2023-04-16T11:10:08.562Z,1.30
2023-04-16T11:12:41.776Z,1.40
2023-04-16T11:15:12.003Z,1.30
2023-04-16T11:17:54.105Z,1.10
2023-04-16T11:20:24.633Z,1.30
2023-04-16T11:22:54.955Z,1.40
2023-04-16T11:25:23.489Z,1.60
2023-04-16T11:27:53.372Z,1.30
2023-04-16T11:30:37.692Z,1.40
2023-04-16T11:33:15.477Z,1.40
2023-04-16T11:35:44.702Z,1.20
2023-04-16T11:38:13.325Z,1.30
2023-04-16T11:40:44.234Z,1.40
2023-04-16T11:43:18.773Z,1.67
2023-04-16T11:46:16.242Z,1.13
2023-04-16T11:48:55.087Z,1.33
2023-04-16T11:51:24.711Z,1.35
2023-04-16T11:53:54.452Z,1.20
2023-04-16T11:56:30.975Z,1.10
2023-04-16T11:59:13.152Z,1.20
2023-04-16T12:01:43.104Z,1.33
2023-04-16T12:04:11.821Z,1.20
2023-04-16T12:06:40.557Z,1.45
2023-04-16T12:09:28.624Z,1.58
2023-04-16T12:11:57.660Z,1.35
2023-04-16T12:14:26.193Z,1.40
2023-04-16T12:16:54.817Z,1.40
2023-04-16T12:19:23.655Z,1.60
2023-04-16T12:21:52.652Z,1.50
2023-04-16T12:24:22.148Z,1.60
2023-04-16T12:26:57.458Z,1.40
2023-04-16T12:29:29.332Z,1.50
2023-04-16T12:31:57.991Z,1.60
2023-04-16T12:34:28.967Z,1.42
2023-04-16T12:37:16.287Z,1.23
2023-04-16T12:39:46.316Z,1.45
2023-04-16T12:42:16.188Z,1.70
2023-04-16T12:44:44.763Z,1.30
2023-04-16T12:47:13.326Z,1.50
2023-04-16T12:49:42.007Z,1.40
2023-04-16T12:52:10.535Z,1.52
2023-04-16T12:54:39.143Z,1.30
2023-04-16T12:57:07.678Z,1.55
2023-04-16T12:59:36.229Z,1.50
2023-04-16T13:02:05.115Z,1.98
2023-04-16T13:04:33.941Z,1.50
2023-04-16T13:07:02.707Z,1.50
2023-04-16T13:09:31.290Z,1.70
2023-04-16T13:12:00.246Z,1.73
2023-04-16T13:14:28.857Z,1.58
2023-04-16T13:16:57.537Z,1.70
2023-04-16T13:19:26.157Z,1.63
2023-04-16T13:21:55.203Z,1.65
2023-04-16T13:24:24.788Z,1.80
2023-04-16T13:26:57.656Z,1.75
2023-04-16T13:29:26.259Z,1.50
2023-04-16T13:31:54.887Z,1.90
2023-04-16T13:34:23.566Z,1.90
2023-04-16T13:36:52.127Z,1.70
2023-04-16T13:39:20.878Z,1.80
2023-04-16T13:41:50.351Z,1.98
2023-04-16T13:44:18.983Z,1.83
2023-04-16T13:46:49.089Z,2.10
2023-04-16T13:49:17.850Z,1.98
2023-04-16T13:51:46.450Z,1.75
2023-04-16T13:54:15.112Z,1.90
2023-04-16T13:56:43.701Z,2.72
2023-04-16T13:59:12.686Z,2.63
2023-04-16T14:01:41.382Z,2.20
2023-04-16T14:04:10.155Z,2.05
2023-04-16T14:06:38.719Z,1.83
2023-04-16T14:09:07.328Z,1.90
2023-04-16T14:11:35.945Z,1.90
2023-04-16T14:14:04.775Z,1.50
2023-04-16T14:16:33.438Z,2.80
2023-04-16T14:19:02.225Z,1.73
2023-04-16T14:21:31.158Z,1.98
2023-04-16T14:23:59.754Z,2.15
2023-04-16T14:26:28.501Z,1.98
2023-04-16T14:28:57.009Z,2.13
2023-04-16T14:31:25.671Z,1.98
2023-04-16T14:33:54.439Z,2.20
2023-04-16T14:36:23.053Z,2.08
2023-04-16T14:38:51.644Z,1.98
2023-04-16T14:41:20.187Z,2.17
2023-04-16T14:43:48.796Z,2.00
2023-04-16T14:46:20.717Z,2.28
2023-04-16T14:48:49.441Z,2.00
2023-04-16T14:51:18.006Z,2.78
2023-04-16T14:53:46.695Z,2.10
2023-04-16T14:56:15.370Z,2.17
2023-04-16T14:58:44.648Z,2.05
2023-04-16T15:01:15.089Z,2.05
2023-04-16T15:03:45.253Z,2.10
2023-04-16T15:06:13.962Z,2.05
2023-04-16T15:08:42.890Z,1.90
2023-04-16T15:11:11.619Z,2.13
2023-04-16T15:13:40.717Z,1.92
2023-04-16T15:16:09.324Z,1.83
2023-04-16T15:18:38.374Z,1.88
2023-04-16T15:21:06.565Z,2.63
2023-04-16T15:23:35.166Z,2.28
2023-04-16T15:26:03.760Z,2.00
2023-04-16T15:28:32.364Z,1.80
2023-04-16T15:31:01.101Z,2.13
2023-04-16T15:33:29.890Z,1.90
2023-04-16T15:35:58.641Z,1.90
2023-04-16T15:38:27.390Z,2.10
2023-04-16T15:40:55.953Z,1.90
2023-04-16T15:43:24.560Z,1.80
2023-04-16T15:45:53.131Z,2.17
2023-04-16T15:48:22.686Z,2.30
2023-04-16T15:50:51.679Z,1.98
2023-04-16T15:53:20.315Z,2.00
2023-04-16T15:55:51.647Z,2.00
2023-04-16T15:58:20.469Z,1.95
2023-04-16T16:00:51.244Z,2.08
2023-04-16T16:03:20.662Z,2.08
2023-04-16T16:05:49.734Z,2.35
2023-04-16T16:08:18.460Z,1.83
2023-04-16T16:10:47.172Z,2.10
2023-04-16T16:13:19.223Z,2.50
2023-04-16T16:15:47.818Z,2.25
2023-04-16T16:18:16.457Z,2.55
2023-04-16T16:20:48.232Z,2.03
2023-04-16T16:23:16.889Z,1.88
2023-04-16T16:25:45.534Z,2.70
2023-04-16T16:28:14.157Z,2.10
2023-04-16T16:30:42.750Z,2.10
2023-04-16T16:33:11.546Z,2.20
2023-04-16T16:35:40.566Z,2.10
2023-04-16T16:38:09.137Z,2.10
2023-04-16T16:40:37.826Z,2.10
2023-04-16T16:43:06.482Z,2.25
2023-04-16T16:45:35.079Z,2.25
2023-04-16T16:48:05.186Z,2.05
2023-04-16T16:50:34.287Z,2.10
2023-04-16T16:53:02.936Z,2.28
2023-04-16T16:55:31.544Z,2.17
2023-04-16T16:58:00.191Z,2.28
2023-04-16T17:00:29.401Z,2.22
2023-04-16T17:02:58.180Z,2.53
2023-04-16T17:05:26.977Z,2.05
2023-04-16T17:07:55.624Z,2.10
2023-04-16T17:10:24.523Z,2.33
2023-04-16T17:12:53.568Z,2.10
2023-04-16T17:15:22.263Z,2.10
2023-04-16T17:17:50.845Z,2.10
2023-04-16T17:20:19.507Z,2.13
2023-04-16T17:22:48.156Z,2.42
2023-04-16T17:25:17.016Z,2.08
2023-04-16T17:27:45.575Z,1.90
2023-04-16T17:30:14.364Z,2.25
2023-04-16T17:32:42.954Z,2.03
2023-04-16T17:35:12.146Z,2.50
2023-04-16T17:37:40.688Z,2.40
2023-04-16T17:40:10.021Z,2.10
2023-04-16T17:42:38.852Z,2.00
2023-04-16T17:45:07.972Z,2.00
2023-04-16T17:47:40.168Z,2.00
2023-04-16T17:50:10.127Z,2.22
2023-04-16T17:52:39.183Z,2.50
2023-04-16T17:55:09.062Z,2.03
2023-04-16T17:57:38.511Z,2.30
2023-04-16T18:00:09.196Z,2.38
2023-04-16T18:02:37.820Z,2.20
2023-04-16T18:05:08.572Z,2.45
2023-04-16T18:07:37.804Z,2.28
2023-04-16T18:10:07.560Z,1.88
2023-04-16T18:12:36.346Z,1.98
2023-04-16T18:15:05.382Z,2.00
2023-04-16T18:17:34.086Z,1.67
2023-04-16T18:20:02.673Z,1.65
2023-04-16T18:22:31.322Z,1.60
2023-04-16T18:24:59.974Z,1.85
2023-04-16T18:27:28.834Z,2.17
2023-04-16T18:29:57.566Z,2.00
2023-04-16T18:32:26.280Z,1.90
2023-04-16T18:34:57.633Z,2.30
2023-04-16T18:37:26.267Z,2.03
2023-04-16T18:39:56.137Z,2.00
2023-04-16T18:42:29.465Z,2.05
2023-04-16T18:44:59.437Z,2.13
2023-04-16T18:47:28.153Z,2.53
2023-04-16T18:49:56.781Z,2.50
2023-04-16T18:52:25.371Z,2.03
2023-04-16T18:54:53.979Z,2.60
2023-04-16T18:57:22.163Z,2.25
2023-04-16T18:59:50.767Z,2.22
2023-04-16T19:02:19.546Z,2.20
2023-04-16T19:04:48.253Z,2.28
2023-04-16T19:07:16.879Z,2.10
2023-04-16T19:09:45.942Z,2.03
2023-04-16T19:12:14.714Z,2.38
2023-04-16T19:14:43.271Z,2.88
2023-04-16T19:17:13.390Z,2.40
2023-04-16T19:19:41.971Z,1.90
2023-04-16T19:22:10.574Z,2.20
2023-04-16T19:24:39.355Z,2.40
2023-04-16T19:27:07.960Z,2.15
2023-04-16T19:29:36.616Z,2.38
2023-04-16T19:32:05.589Z,2.13
2023-04-16T19:34:34.246Z,1.95
2023-04-16T19:37:03.063Z,1.75
2023-04-16T19:39:32.924Z,1.90
2023-04-16T19:42:03.018Z,1.70
2023-04-16T19:44:31.606Z,2.10
2023-04-16T19:47:00.904Z,1.90
2023-04-16T19:49:29.493Z,2.40
2023-04-16T19:51:58.096Z,2.20
2023-04-16T19:54:26.736Z,1.98
2023-04-16T19:56:55.257Z,1.90
2023-04-16T19:59:23.771Z,1.90
2023-04-16T20:01:52.702Z,1.60
2023-04-16T20:04:21.639Z,2.38
2023-04-16T20:06:50.216Z,2.15
2023-04-16T20:09:21.308Z,1.90
2023-04-16T20:11:50.766Z,2.05
2023-04-16T20:14:19.369Z,23.15
2023-04-16T20:16:47.999Z,13.27
2023-04-16T20:19:18.203Z,10.80
2023-04-16T20:21:47.047Z,5.53
2023-04-16T20:24:16.623Z,2.15
2023-04-16T20:26:45.272Z,6.78
2023-04-16T20:29:13.825Z,4.75
2023-04-16T20:31:43.969Z,4.65
2023-04-16T20:34:12.554Z,2.97
2023-04-16T20:36:41.184Z,24.98
2023-04-16T20:39:11.139Z,12.90
2023-04-16T20:41:45.093Z,2.60
2023-04-16T20:44:19.357Z,2.00
2023-04-16T20:46:51.069Z,2.20
2023-04-16T20:49:19.721Z,2.53
2023-04-16T20:51:48.276Z,1.80
2023-04-16T20:54:17.030Z,1.70
2023-04-16T20:56:46.308Z,1.95
2023-04-16T20:59:14.861Z,2.20
2023-04-16T21:01:43.516Z,1.92
2023-04-16T21:04:12.447Z,1.77
2023-04-16T21:06:44.293Z,2.10
2023-04-16T21:09:13.346Z,1.70
2023-04-16T21:11:42.700Z,1.65
2023-04-16T21:14:11.294Z,1.50
2023-04-16T21:16:40.037Z,1.70
2023-04-16T21:19:10.076Z,1.50
2023-04-16T21:21:39.500Z,1.85
2023-04-16T21:24:08.482Z,1.85
2023-04-16T21:26:37.274Z,1.65
2023-04-16T21:29:05.860Z,1.90
2023-04-16T21:31:34.582Z,1.90
2023-04-16T21:34:03.279Z,1.60
2023-04-16T21:36:33.309Z,1.58
2023-04-16T21:39:01.867Z,1.73
2023-04-16T21:41:30.575Z,1.70
2023-04-16T21:43:59.124Z,2.28
2023-04-16T21:46:28.059Z,1.67
2023-04-16T21:48:56.682Z,1.70
2023-04-16T21:51:30.448Z,1.60
2023-04-16T21:53:59.077Z,1.70
2023-04-16T21:56:27.724Z,1.80
2023-04-16T21:58:56.366Z,1.80
2023-04-16T22:01:24.999Z,1.55
2023-04-16T22:03:53.840Z,1.50
2023-04-16T22:06:22.564Z,1.83
2023-04-16T22:08:51.208Z,1.83
2023-04-16T22:11:20.764Z,1.73
2023-04-16T22:13:50.614Z,1.58
2023-04-16T22:16:19.238Z,1.60
2023-04-16T22:18:48.789Z,1.65
2023-04-16T22:21:17.395Z,1.52
2023-04-16T22:23:47.785Z,1.95
2023-04-16T22:26:16.421Z,1.45
2023-04-16T22:28:44.970Z,1.50
2023-04-16T22:31:12.958Z,1.60
2023-04-16T22:33:41.076Z,2.28
2023-04-16T22:36:09.308Z,1.38
2023-04-16T22:38:39.350Z,1.40
2023-04-16T22:41:07.436Z,1.27
2023-04-16T22:43:37.738Z,2.03
2023-04-16T22:46:07.799Z,2.13
2023-04-16T22:48:40.106Z,2.60
2023-04-16T22:51:11.440Z,2.63
2023-04-16T22:53:40.021Z,2.35
2023-04-16T22:56:08.827Z,1.65
2023-04-16T22:58:38.249Z,1.92
2023-04-16T23:01:06.916Z,1.60
2023-04-16T23:03:35.672Z,1.60
2023-04-16T23:06:07.239Z,1.40
2023-04-16T23:08:35.334Z,1.67
2023-04-16T23:11:03.602Z,1.50
2023-04-16T23:13:32.306Z,2.03
2023-04-16T23:16:00.968Z,1.75
2023-04-16T23:18:29.039Z,1.92
2023-04-16T23:20:57.138Z,1.50
2023-04-16T23:23:25.184Z,1.33
2023-04-16T23:25:57.157Z,1.48
2023-04-16T23:28:25.755Z,1.40
2023-04-16T23:30:54.386Z,1.60
2023-04-16T23:33:23.306Z,1.73
2023-04-16T23:35:51.987Z,1.60
2023-04-16T23:38:20.629Z,1.50
2023-04-16T23:40:49.262Z,1.30
2023-04-16T23:43:17.935Z,1.50
2023-04-16T23:45:46.557Z,1.40
2023-04-16T23:48:15.190Z,1.55
2023-04-16T23:50:43.914Z,1.83
2023-04-16T23:53:12.522Z,2.15
2023-04-16T23:55:41.290Z,1.23
2023-04-16T23:58:09.904Z,1.55
